createdAt,value
2018-04-23T00:02:45.316Z,43.21
2018-04-23T00:04:06.316Z,43.46
2018-04-23T00:04:45.816Z,45.17
2018-04-23T00:05:45.815Z,43.21
2018-04-23T00:09:16.693Z,45.17
2018-04-23T00:10:17.319Z,43.21
2018-04-23T00:11:17.818Z,47.12
2018-04-23T00:12:17.819Z,49.56
2018-04-23T00:13:17.819Z,46.39
2018-04-23T00:14:17.821Z,62.01
2018-04-23T00:15:18.323Z,48.34
2018-04-23T00:16:39.319Z,46.88
2018-04-23T00:17:18.319Z,44.19
2018-04-23T00:18:19.251Z,46.88
2018-04-23T00:19:18.819Z,44.92
2018-04-23T00:20:39.819Z,43.46
2018-04-23T00:21:18.829Z,42.72
2018-04-23T00:22:18.818Z,43.70
2018-04-23T00:23:19.320Z,43.21
2018-04-23T00:27:11.707Z,42.97
2018-04-23T00:27:50.716Z,42.72
2018-04-23T00:31:43.481Z,44.43
2018-04-23T00:32:22.475Z,45.41
2018-04-23T00:33:44.906Z,44.68
2018-04-23T00:34:28.979Z,43.46
2018-04-23T00:35:22.975Z,42.97
2018-04-23T00:36:22.974Z,44.19
2018-04-23T00:37:23.480Z,43.95
2018-04-23T00:38:25.406Z,44.19
2018-04-23T00:39:25.446Z,48.83
2018-04-23T00:40:23.473Z,82.03
2018-04-23T00:41:44.979Z,42.97
2018-04-23T00:42:23.976Z,48.58
2018-04-23T00:43:23.974Z,51.51
2018-04-23T00:44:23.449Z,46.63
2018-04-23T00:45:45.474Z,43.46
2018-04-23T00:46:47.474Z,44.19
2018-04-23T00:47:24.474Z,43.70
2018-04-23T00:48:24.482Z,44.19
2018-04-23T00:49:24.974Z,43.46
2018-04-23T00:50:45.974Z,42.72
2018-04-23T00:51:24.326Z,46.14
2018-04-23T00:52:45.983Z,55.18
2018-04-23T00:53:25.475Z,46.88
2018-04-23T00:54:46.473Z,43.70
2018-04-23T00:55:25.544Z,43.46
2018-04-23T00:56:26.435Z,43.70
2018-04-23T00:57:31.986Z,44.19
2018-04-23T00:58:25.973Z,60.79
2018-04-23T00:59:25.975Z,81.54
2018-04-23T01:02:57.474Z,44.19
2018-04-23T01:03:57.474Z,52.98
2018-04-23T01:04:57.978Z,43.21
2018-04-23T01:05:57.974Z,45.65
2018-04-23T01:06:57.974Z,43.46
2018-04-23T01:07:57.975Z,43.21
2018-04-23T01:09:18.552Z,43.70
2018-04-23T01:09:57.682Z,43.21
2018-04-23T01:10:58.474Z,43.70
2018-04-23T01:11:58.473Z,43.95
2018-04-23T01:13:00.971Z,43.46
2018-04-23T01:13:58.973Z,44.68
2018-04-23T01:15:00.449Z,44.43
2018-04-23T01:15:58.977Z,43.95
2018-04-23T01:17:21.456Z,43.95
2018-04-23T01:18:00.906Z,47.36
2018-04-23T01:18:58.816Z,53.96
2018-04-23T01:22:52.071Z,43.95
2018-04-23T01:27:34.564Z,44.92
2018-04-23T01:28:34.564Z,43.46
2018-04-23T01:29:49.064Z,43.46
2018-04-23T01:30:35.064Z,44.92
2018-04-23T01:31:35.066Z,44.68
2018-04-23T01:32:36.063Z,44.19
2018-04-23T01:33:56.563Z,44.43
2018-04-23T01:34:58.565Z,43.70
2018-04-23T01:35:49.563Z,44.43
2018-04-23T01:36:35.563Z,44.43
2018-04-23T01:37:35.176Z,44.92
2018-04-23T01:38:36.066Z,43.46
2018-04-23T01:39:36.072Z,44.19
2018-04-23T01:40:36.064Z,45.65
2018-04-23T01:41:57.564Z,45.65
2018-04-23T01:42:57.563Z,44.92
2018-04-23T01:43:36.564Z,83.98
2018-04-23T01:44:36.564Z,47.85
2018-04-23T01:45:37.063Z,44.43
2018-04-23T01:46:58.067Z,44.68
2018-04-23T01:47:37.063Z,51.03
2018-04-23T01:48:37.063Z,44.19
2018-04-23T01:49:36.662Z,43.46
2018-04-23T01:50:58.565Z,43.95
2018-04-23T01:51:58.563Z,45.17
2018-04-23T01:52:37.563Z,44.19
2018-04-23T01:53:38.059Z,45.41
2018-04-23T01:54:59.066Z,44.19
2018-04-23T01:55:44.070Z,83.50
2018-04-23T01:56:38.062Z,53.47
2018-04-23T01:58:01.037Z,55.18
2018-04-23T01:58:59.562Z,44.19
2018-04-23T01:59:38.569Z,44.92
2018-04-23T02:00:59.575Z,45.41
2018-04-23T02:01:38.163Z,44.92
2018-04-23T02:03:00.062Z,44.68
2018-04-23T02:06:12.259Z,46.63
2018-04-23T02:07:12.259Z,47.36
2018-04-23T02:08:12.768Z,45.17
2018-04-23T02:09:12.759Z,45.17
2018-04-23T02:10:12.756Z,45.17
2018-04-23T02:11:12.818Z,44.68
2018-04-23T02:12:13.268Z,46.63
2018-04-23T02:13:13.259Z,51.76
2018-04-23T02:19:54.110Z,44.68
2018-04-23T02:20:47.679Z,47.12
2018-04-23T02:21:48.184Z,44.43
2018-04-23T02:22:49.653Z,43.95
2018-04-23T02:23:49.646Z,44.19
2018-04-23T02:24:47.626Z,44.43
2018-04-23T02:26:02.675Z,52.00
2018-04-23T02:26:47.781Z,44.68
2018-04-23T02:28:15.676Z,47.36
2018-04-23T02:31:20.204Z,43.70
2018-04-23T02:32:20.193Z,44.19
2018-04-23T02:33:19.792Z,43.70
2018-04-23T02:37:13.053Z,44.43
2018-04-23T02:38:13.054Z,45.65
2018-04-23T02:38:54.985Z,44.43
2018-04-23T02:42:23.905Z,45.41
2018-04-23T02:43:23.904Z,44.92
2018-04-23T02:44:24.407Z,43.70
2018-04-23T02:45:23.627Z,85.94
2018-04-23T02:46:51.406Z,69.34
2018-04-23T02:47:45.404Z,45.17
2018-04-23T02:48:24.904Z,45.41
2018-04-23T02:49:45.904Z,43.70
2018-04-23T02:50:24.909Z,43.95
2018-04-23T02:51:24.913Z,45.17
2018-04-23T02:52:25.410Z,47.36
2018-04-23T02:53:25.403Z,43.46
2018-04-23T02:54:25.403Z,81.54
2018-04-23T02:55:25.403Z,44.92
2018-04-23T02:58:57.164Z,45.41
2018-04-23T02:59:59.172Z,51.76
2018-04-23T03:00:57.663Z,80.57
2018-04-23T03:01:57.666Z,44.68
2018-04-23T03:05:49.538Z,43.46
2018-04-23T03:06:29.199Z,43.95
2018-04-23T03:07:28.797Z,72.27
2018-04-23T03:08:41.132Z,81.54
2018-04-23T03:09:50.699Z,85.21
2018-04-23T03:10:29.695Z,63.96
2018-04-23T03:14:01.476Z,52.25
2018-04-23T03:15:01.458Z,83.01
2018-04-23T03:16:01.962Z,82.28
2018-04-23T03:17:02.009Z,55.66
2018-04-23T03:18:01.983Z,84.47
2018-04-23T03:19:29.460Z,57.13
2018-04-23T03:22:54.704Z,59.81
2018-04-23T03:23:54.705Z,59.33
2018-04-23T03:27:05.496Z,60.79
2018-04-23T03:28:05.496Z,82.03
2018-04-23T03:29:05.098Z,81.79
2018-04-23T03:30:05.997Z,78.13
2018-04-23T03:31:05.998Z,83.50
2018-04-23T03:32:06.003Z,62.01
2018-04-23T03:33:06.496Z,61.04
2018-04-23T03:34:27.496Z,64.45
2018-04-23T03:35:06.498Z,83.50
2018-04-23T03:36:06.506Z,62.26
2018-04-23T03:37:20.997Z,61.77
2018-04-23T03:38:29.429Z,79.59
2018-04-23T03:41:38.503Z,62.74
2018-04-23T03:42:38.501Z,80.32
2018-04-23T03:44:00.002Z,62.26
2018-04-23T03:50:13.560Z,84.47
2018-04-23T03:51:13.565Z,60.06
2018-04-23T03:52:14.059Z,83.74
2018-04-23T03:53:14.063Z,78.61
2018-04-23T03:56:46.992Z,61.28
2018-04-23T03:57:45.610Z,84.96
2018-04-23T04:01:17.346Z,78.13
2018-04-23T04:02:17.346Z,85.69
2018-04-23T04:03:31.852Z,74.95
2018-04-23T04:04:17.855Z,61.28
2018-04-23T04:05:17.845Z,83.50
2018-04-23T04:06:20.777Z,86.43
2018-04-23T04:07:18.346Z,84.96
2018-04-23T04:08:18.349Z,84.96
2018-04-23T04:09:18.395Z,83.25
2018-04-23T04:12:49.970Z,85.45
2018-04-23T04:13:49.981Z,87.16
2018-04-23T04:14:50.470Z,85.94
2018-04-23T04:15:49.699Z,83.25
2018-04-23T04:16:50.526Z,66.65
2018-04-23T04:18:11.472Z,59.81
2018-04-23T04:18:51.968Z,57.86
2018-04-23T04:22:36.388Z,61.77
2018-04-23T04:23:22.385Z,81.79
2018-04-23T04:24:47.819Z,84.72
2018-04-23T04:25:22.893Z,83.74
2018-04-23T04:26:22.887Z,60.30
2018-04-23T04:27:22.884Z,57.62
2018-04-23T04:28:45.341Z,82.28
2018-04-23T04:29:23.385Z,54.44
2018-04-23T04:30:24.852Z,85.21
2018-04-23T04:31:23.388Z,60.06
2018-04-23T04:32:23.028Z,83.01
2018-04-23T04:33:44.895Z,87.89
2018-04-23T04:34:44.884Z,57.62
2018-04-23T04:35:23.897Z,84.23
2018-04-23T04:39:19.171Z,84.72
2018-04-23T04:39:57.633Z,82.52
2018-04-23T04:40:56.174Z,84.47
2018-04-23T04:41:56.673Z,87.40
2018-04-23T04:42:55.886Z,60.79
2018-04-23T04:43:56.721Z,58.84
2018-04-23T04:45:17.677Z,82.28
2018-04-23T04:45:57.229Z,53.47
2018-04-23T04:46:57.174Z,84.96
2018-04-23T04:50:28.571Z,84.23
2018-04-23T04:51:28.578Z,92.53
2018-04-23T04:52:29.075Z,71.78
2018-04-23T04:53:29.077Z,51.03
2018-04-23T04:54:29.075Z,51.76
2018-04-23T04:55:29.079Z,84.23
2018-04-23T05:00:46.261Z,85.21
2018-04-23T05:01:32.263Z,75.20
2018-04-23T05:02:57.199Z,84.72
2018-04-23T05:04:53.767Z,82.76
2018-04-23T05:05:33.736Z,81.79
2018-04-23T05:06:56.698Z,84.47
2018-04-23T05:07:39.265Z,82.03
2018-04-23T05:08:54.267Z,85.21
2018-04-23T05:09:33.271Z,85.94
2018-04-23T05:10:55.699Z,81.54
2018-04-23T05:14:05.098Z,83.50
2018-04-23T05:15:05.099Z,61.04
2018-04-23T05:16:26.602Z,85.69
2018-04-23T05:17:05.599Z,84.23
2018-04-23T05:18:05.600Z,84.23
2018-04-23T05:19:05.599Z,85.21
2018-04-23T05:22:37.361Z,84.47
2018-04-23T05:23:37.425Z,84.23
2018-04-23T05:24:58.861Z,87.40
2018-04-23T05:25:58.861Z,85.21
2018-04-23T05:26:58.860Z,81.05
2018-04-23T05:27:37.861Z,81.54
2018-04-23T05:29:05.361Z,82.03
2018-04-23T05:33:41.165Z,87.16
2018-04-23T05:34:41.169Z,83.98
2018-04-23T05:36:02.668Z,80.57
2018-04-23T05:39:35.479Z,82.52
2018-04-23T05:40:34.042Z,82.28
2018-04-23T05:41:34.051Z,83.98
2018-04-23T05:42:15.545Z,63.23
2018-04-23T05:43:13.591Z,85.21
2018-04-23T05:44:13.598Z,87.40
2018-04-23T05:45:13.544Z,84.23
2018-04-23T05:46:13.149Z,83.50
2018-04-23T05:47:41.045Z,83.25
2018-04-23T05:48:14.045Z,86.67
2018-04-23T05:49:14.045Z,52.00
2018-04-23T05:52:45.275Z,83.98
2018-04-23T05:53:46.308Z,84.23
2018-04-23T05:54:46.307Z,87.40
2018-04-23T05:55:46.309Z,84.47
2018-04-23T05:56:47.765Z,64.21
2018-04-23T05:57:46.807Z,90.82
2018-04-23T06:01:18.184Z,85.21
2018-04-23T06:02:18.193Z,80.32
2018-04-23T06:05:49.411Z,87.65
2018-04-23T06:10:53.031Z,81.30
2018-04-23T06:11:53.039Z,82.76
2018-04-23T06:12:53.534Z,83.98
2018-04-23T06:14:15.532Z,83.98
2018-04-23T06:14:53.560Z,77.15
2018-04-23T06:15:54.033Z,55.18
2018-04-23T06:16:54.033Z,81.30
2018-04-23T06:17:54.035Z,82.52
2018-04-23T06:19:15.045Z,82.03
2018-04-23T06:19:53.521Z,80.57
2018-04-23T06:20:54.533Z,84.96
2018-04-23T06:22:15.532Z,83.98
2018-04-23T06:22:54.533Z,82.03
2018-04-23T06:23:54.533Z,83.50
2018-04-23T06:24:55.406Z,84.72
2018-04-23T06:25:55.385Z,81.05
2018-04-23T06:26:55.395Z,82.03
2018-04-23T06:27:55.034Z,83.50
2018-04-23T06:34:31.137Z,82.52
2018-04-23T06:38:07.385Z,76.66
2018-04-23T06:39:22.393Z,90.33
2018-04-23T06:40:28.889Z,82.52
2018-04-23T06:43:47.598Z,81.79
2018-04-23T06:44:54.270Z,85.94
2018-04-23T06:45:33.202Z,83.98
2018-04-23T06:46:33.858Z,82.03
2018-04-23T06:47:33.769Z,86.43
2018-04-23T06:48:33.773Z,80.32
2018-04-23T06:49:37.777Z,81.05
2018-04-23T06:50:33.519Z,82.52
2018-04-23T06:51:33.606Z,85.45
2018-04-23T06:52:40.269Z,77.88
2018-04-23T06:56:06.028Z,82.03
2018-04-23T06:57:05.491Z,90.09
2018-04-23T06:58:05.620Z,81.05
2018-04-23T06:59:06.547Z,78.86
2018-04-23T07:00:08.559Z,80.57
2018-04-23T07:01:06.528Z,78.86
2018-04-23T07:02:06.132Z,77.88
2018-04-23T07:03:06.236Z,83.01
2018-04-23T07:04:07.023Z,82.28
2018-04-23T07:05:07.051Z,76.17
2018-04-23T07:06:06.634Z,81.30
2018-04-23T07:07:09.582Z,81.79
2018-04-23T07:08:07.524Z,78.13
2018-04-23T07:14:33.586Z,85.21
2018-04-23T07:15:10.053Z,60.79
2018-04-23T07:18:42.348Z,83.50
2018-04-23T07:19:42.345Z,81.05
2018-04-23T07:20:48.852Z,82.28
2018-04-23T07:21:42.842Z,79.10
2018-04-23T07:22:47.777Z,79.83
2018-04-23T07:23:42.334Z,84.47
2018-04-23T07:27:35.591Z,82.52
2018-04-23T07:28:14.593Z,81.30
2018-04-23T07:31:46.358Z,77.88
2018-04-23T07:32:45.865Z,58.59
2018-04-23T07:36:18.130Z,77.88
2018-04-23T07:37:18.131Z,78.37
2018-04-23T07:38:18.630Z,84.47
2018-04-23T07:39:18.628Z,82.03
2018-04-23T07:40:18.630Z,81.79
2018-04-23T07:41:19.629Z,79.35
2018-04-23T07:42:19.128Z,80.08
2018-04-23T07:43:19.131Z,81.05
2018-04-23T07:44:19.131Z,83.25
2018-04-23T07:45:19.131Z,80.57
2018-04-23T07:48:50.900Z,76.90
2018-04-23T07:50:05.387Z,83.74
2018-04-23T07:50:50.489Z,78.13
2018-04-23T07:51:57.387Z,79.59
2018-04-23T07:53:15.320Z,82.28
2018-04-23T07:53:53.321Z,80.08
2018-04-23T07:54:51.007Z,78.37
2018-04-23T07:55:51.886Z,82.52
2018-04-23T07:59:29.390Z,73.00
2018-04-23T08:00:22.870Z,55.42
2018-04-23T08:01:22.997Z,84.72
2018-04-23T08:02:23.897Z,79.83
2018-04-23T08:03:23.907Z,82.03
2018-04-23T08:04:23.893Z,78.37
2018-04-23T08:05:24.717Z,81.54
2018-04-23T08:06:53.408Z,79.35
2018-04-23T08:07:24.392Z,81.30
2018-04-23T08:08:24.392Z,59.57
2018-04-23T08:09:27.824Z,83.98
2018-04-23T08:12:56.784Z,83.01
2018-04-23T08:13:56.778Z,60.06
2018-04-23T08:17:28.534Z,78.61
2018-04-23T08:18:28.142Z,76.66
2018-04-23T08:19:56.035Z,84.72
2018-04-23T08:20:29.107Z,57.13
2018-04-23T08:21:29.967Z,81.05
2018-04-23T08:22:28.657Z,60.06
2018-04-23T08:26:01.304Z,67.87
2018-04-23T08:27:00.949Z,51.76
2018-04-23T08:32:26.683Z,81.05
2018-04-23T08:33:05.156Z,80.32
2018-04-23T08:36:35.320Z,78.13
2018-04-23T08:37:36.007Z,78.86
2018-04-23T08:38:56.615Z,81.30
2018-04-23T08:39:36.475Z,80.08
2018-04-23T08:40:35.827Z,83.50
2018-04-23T08:41:35.927Z,78.86
2018-04-23T08:42:50.987Z,81.79
2018-04-23T08:43:36.097Z,81.05
2018-04-23T08:44:36.977Z,79.10
2018-04-23T08:45:36.977Z,88.87
2018-04-23T08:46:50.976Z,81.05
2018-04-23T08:47:37.477Z,83.98
2018-04-23T08:48:37.476Z,81.30
2018-04-23T08:49:36.855Z,72.02
2018-04-23T08:50:39.531Z,75.68
2018-04-23T08:51:58.976Z,80.81
2018-04-23T08:55:09.373Z,73.97
2018-04-23T08:56:09.378Z,75.44
2018-04-23T08:59:41.140Z,81.05
2018-04-23T09:00:47.642Z,83.74
2018-04-23T09:02:04.645Z,78.61
2018-04-23T09:02:40.877Z,77.15
2018-04-23T09:03:41.646Z,75.93
2018-04-23T09:04:41.655Z,80.32
2018-04-23T09:05:41.254Z,57.86
2018-04-23T09:06:43.104Z,81.54
2018-04-23T09:07:56.143Z,84.23
2018-04-23T09:08:42.259Z,82.76
2018-04-23T09:09:48.643Z,81.54
2018-04-23T09:10:42.655Z,81.54
2018-04-23T09:11:42.030Z,64.45
2018-04-23T09:12:42.641Z,76.17
2018-04-23T09:16:35.399Z,77.64
2018-04-23T09:17:20.899Z,66.16
2018-04-23T09:20:45.668Z,76.17
2018-04-23T09:21:46.320Z,59.08
2018-04-23T09:22:46.821Z,82.52
2018-04-23T09:29:11.023Z,80.81
2018-04-23T09:29:50.027Z,78.37
2018-04-23T09:30:49.628Z,82.03
2018-04-23T09:31:50.597Z,62.50
2018-04-23T09:35:43.048Z,81.54
2018-04-23T09:36:22.029Z,54.93
2018-04-23T09:37:42.613Z,85.94
2018-04-23T09:38:43.458Z,82.03
2018-04-23T09:39:22.525Z,58.84
2018-04-23T09:40:22.526Z,84.72
2018-04-23T09:41:22.533Z,85.94
2018-04-23T09:42:29.025Z,78.37
2018-04-23T09:43:43.235Z,82.03
2018-04-23T09:46:54.525Z,49.07
2018-04-23T09:47:54.507Z,87.16
2018-04-23T09:48:55.006Z,80.57
2018-04-23T09:49:55.008Z,82.76
2018-04-23T09:50:55.005Z,81.05
2018-04-23T09:52:15.496Z,77.15
2018-04-23T09:52:55.520Z,51.76
2018-04-23T09:56:48.911Z,82.03
2018-04-23T09:57:29.414Z,78.86
2018-04-23T09:58:27.413Z,81.54
2018-04-23T09:59:29.417Z,66.89
2018-04-23T10:00:27.418Z,80.57
2018-04-23T10:01:27.410Z,60.79
2018-04-23T10:04:59.240Z,81.30
2018-04-23T10:06:20.387Z,79.83
2018-04-23T10:07:05.729Z,60.30
2018-04-23T10:08:20.729Z,78.86
2018-04-23T10:11:31.254Z,84.23
2018-04-23T10:15:03.023Z,83.25
2018-04-23T10:16:24.519Z,86.18
2018-04-23T10:17:05.520Z,76.90
2018-04-23T10:20:35.033Z,82.03
2018-04-23T10:21:35.540Z,78.86
2018-04-23T10:22:35.603Z,82.03
2018-04-23T10:23:35.529Z,60.55
2018-04-23T10:24:59.010Z,80.57
2018-04-23T10:25:50.040Z,80.57
2018-04-23T10:26:50.035Z,81.79
2018-04-23T10:27:42.034Z,79.35
2018-04-23T10:28:38.038Z,83.25
2018-04-23T10:32:09.762Z,77.64
2018-04-23T10:33:07.835Z,73.24
2018-04-23T10:34:07.438Z,79.59
2018-04-23T10:37:41.819Z,79.83
2018-04-23T10:39:00.807Z,81.54
2018-04-23T10:42:32.557Z,82.28
2018-04-23T10:43:12.555Z,77.15
2018-04-23T10:44:14.489Z,74.22
2018-04-23T10:45:12.057Z,80.57
2018-04-23T10:46:12.063Z,50.78
2018-04-23T10:47:18.599Z,75.20
2018-04-23T10:48:12.560Z,80.32
2018-04-23T10:49:12.560Z,61.52
2018-04-23T10:53:06.081Z,87.16
2018-04-23T11:00:18.511Z,77.39
2018-04-23T11:01:19.158Z,75.68
2018-04-23T11:02:19.656Z,79.83
2018-04-23T11:03:40.654Z,79.83
2018-04-23T11:10:01.058Z,79.10
2018-04-23T11:13:50.459Z,82.28
2018-04-23T11:14:29.460Z,79.59
2018-04-23T11:15:28.819Z,79.83
2018-04-23T11:16:35.465Z,53.22
2018-04-23T11:17:29.067Z,80.32
2018-04-23T11:18:51.958Z,80.81
2018-04-23T11:19:50.958Z,80.81
2018-04-23T11:20:50.960Z,54.20
2018-04-23T11:21:30.460Z,53.22
2018-04-23T11:22:29.699Z,76.17
2018-04-23T11:23:31.454Z,82.28
2018-04-23T11:24:29.970Z,69.09
2018-04-23T11:25:51.050Z,77.39
2018-04-23T11:27:31.012Z,55.66
2018-04-23T11:32:02.766Z,79.35
2018-04-23T11:33:03.265Z,80.08
2018-04-23T11:34:04.695Z,80.32
2018-04-23T11:35:03.263Z,81.79
2018-04-23T11:36:02.758Z,82.28
2018-04-23T11:39:35.042Z,81.05
2018-04-23T11:40:37.539Z,62.50
2018-04-23T11:41:56.556Z,80.32
2018-04-23T11:42:36.512Z,76.66
2018-04-23T11:43:35.540Z,79.35
2018-04-23T11:44:59.043Z,80.08
2018-04-23T11:45:50.043Z,56.64
2018-04-23T11:46:57.039Z,80.32
2018-04-23T11:47:36.052Z,81.30
2018-04-23T11:51:07.831Z,79.59
2018-04-23T11:54:40.017Z,59.81
2018-04-23T11:55:42.502Z,79.35
2018-04-23T11:56:42.977Z,76.66
2018-04-23T11:57:40.503Z,81.05
2018-04-23T11:58:42.501Z,80.08
2018-04-23T11:59:40.997Z,80.57
2018-04-23T12:03:12.408Z,75.20
2018-04-23T12:04:34.933Z,82.03
2018-04-23T12:07:50.665Z,78.13
2018-04-23T12:11:16.370Z,80.32
2018-04-23T12:18:51.866Z,83.25
2018-04-23T12:19:52.886Z,80.08
2018-04-23T12:23:24.765Z,82.28
2018-04-23T12:24:45.762Z,67.14
2018-04-23T12:25:25.263Z,82.76
2018-04-23T12:26:47.733Z,79.35
2018-04-23T12:27:25.263Z,74.95
2018-04-23T12:29:27.219Z,81.79
2018-04-23T12:30:29.251Z,80.32
2018-04-23T12:31:27.196Z,80.32
2018-04-23T12:38:51.292Z,80.32
2018-04-23T12:42:24.067Z,79.35
2018-04-23T12:43:24.073Z,78.13
2018-04-23T12:46:56.354Z,77.88
2018-04-23T12:47:56.355Z,77.64
2018-04-23T12:48:56.854Z,77.88
2018-04-23T12:49:58.855Z,79.35
2018-04-23T12:50:56.906Z,79.35
2018-04-23T12:56:00.986Z,72.02
2018-04-23T12:57:21.516Z,80.57
2018-04-23T12:58:00.514Z,79.10
2018-04-23T12:58:59.881Z,78.37
2018-04-23T13:00:14.521Z,78.37
2018-04-23T13:01:28.017Z,79.83
2018-04-23T13:02:01.026Z,52.49
2018-04-23T13:03:01.525Z,80.81
2018-04-23T13:04:01.017Z,53.22
2018-04-23T13:05:01.541Z,79.35
2018-04-23T13:06:01.519Z,80.08
2018-04-23T13:07:01.522Z,80.57
2018-04-23T13:10:53.913Z,74.71
2018-04-23T13:11:33.732Z,45.41
2018-04-23T13:12:54.732Z,77.39
2018-04-23T13:13:55.229Z,76.66
2018-04-23T13:18:51.999Z,79.35
2018-04-23T13:19:57.472Z,76.66
2018-04-23T13:20:40.942Z,76.42
2018-04-23T13:22:04.498Z,75.68
2018-04-23T13:22:37.499Z,79.10
2018-04-23T13:23:37.496Z,76.17
2018-04-23T13:27:23.329Z,78.61
2018-04-23T13:28:08.938Z,82.76
2018-04-23T13:32:02.261Z,82.28
2018-04-23T13:32:40.769Z,77.88
2018-04-23T13:33:43.742Z,82.28
2018-04-23T13:34:41.744Z,77.64
2018-04-23T13:35:41.738Z,79.59
2018-04-23T13:37:02.750Z,80.08
2018-04-23T13:37:41.359Z,78.13
2018-04-23T13:38:44.236Z,76.42
2018-04-23T13:39:41.605Z,80.08
2018-04-23T13:40:42.234Z,80.08
2018-04-23T13:42:02.877Z,79.35
2018-04-23T13:43:05.168Z,76.42
2018-04-23T13:43:42.734Z,79.35
2018-04-23T13:45:03.736Z,77.15
2018-04-23T13:48:36.507Z,79.35
2018-04-23T13:49:35.530Z,77.64
2018-04-23T13:50:15.087Z,64.21
2018-04-23T13:51:36.024Z,76.66
2018-04-23T13:52:15.040Z,61.04
2018-04-23T13:53:29.527Z,80.81
2018-04-23T13:54:29.528Z,78.37
2018-04-23T13:55:17.546Z,83.01
2018-04-23T13:56:36.527Z,78.13
2018-04-23T13:57:15.527Z,82.28
2018-04-23T13:58:16.029Z,82.03
2018-04-23T13:59:22.027Z,80.57
2018-04-23T14:00:43.026Z,86.91
2018-04-23T14:07:11.928Z,77.15
2018-04-23T14:07:50.414Z,76.17
2018-04-23T14:09:18.430Z,58.59
2018-04-23T14:12:43.861Z,79.59
2018-04-23T14:17:26.130Z,83.50
2018-04-23T14:18:28.131Z,76.17
2018-04-23T14:19:32.630Z,81.79
2018-04-23T14:23:19.073Z,80.08
2018-04-23T14:24:20.571Z,79.35
2018-04-23T14:29:01.452Z,81.79
2018-04-23T14:30:25.409Z,79.35
2018-04-23T14:33:33.367Z,79.35
2018-04-23T14:34:48.865Z,79.59
2018-04-23T14:35:33.872Z,78.86
2018-04-23T14:36:33.868Z,77.88
2018-04-23T14:37:33.867Z,77.64
2018-04-23T14:41:26.686Z,77.88
2018-04-23T14:42:29.187Z,76.66
2018-04-23T14:43:05.425Z,49.32
2018-04-23T14:46:37.753Z,77.39
2018-04-23T14:48:07.186Z,76.42
2018-04-23T14:48:37.553Z,81.79
2018-04-23T14:49:37.693Z,80.08
2018-04-23T14:53:10.021Z,79.35
2018-04-23T14:54:09.983Z,81.30
2018-04-23T14:57:41.262Z,79.83
2018-04-23T14:58:42.292Z,80.57
2018-04-23T14:59:41.531Z,81.79
2018-04-23T15:03:14.781Z,79.10
2018-04-23T15:04:13.848Z,81.05
2018-04-23T15:05:14.346Z,80.08
2018-04-23T15:06:14.346Z,81.05
2018-04-23T15:07:16.280Z,76.17
2018-04-23T15:13:50.400Z,78.61
2018-04-23T15:14:50.900Z,78.37
2018-04-23T15:16:10.476Z,79.83
2018-04-23T15:16:49.468Z,78.13
2018-04-23T15:17:49.471Z,82.28
2018-04-23T15:18:49.468Z,80.57
2018-04-23T15:22:21.240Z,81.30
2018-04-23T15:23:21.742Z,78.37
2018-04-23T15:24:27.741Z,80.08
2018-04-23T15:25:21.736Z,82.03
2018-04-23T15:26:21.742Z,80.57
2018-04-23T15:27:22.239Z,81.05
2018-04-23T15:28:22.240Z,80.32
2018-04-23T15:29:22.240Z,56.88
2018-04-23T15:30:22.248Z,77.64
2018-04-23T15:31:42.840Z,79.59
2018-04-23T15:32:24.172Z,51.03
2018-04-23T15:33:22.744Z,81.30
2018-04-23T15:34:23.239Z,78.13
2018-04-23T15:35:27.672Z,72.75
2018-04-23T15:36:22.448Z,77.88
2018-04-23T15:37:29.240Z,75.44
2018-04-23T15:38:23.241Z,77.88
2018-04-23T15:39:29.741Z,81.30
2018-04-23T15:40:23.815Z,80.57
2018-04-23T15:41:23.742Z,80.08
2018-04-23T15:42:23.747Z,80.81
2018-04-23T15:43:23.770Z,79.83
2018-04-23T15:44:24.240Z,82.28
2018-04-23T15:45:45.240Z,60.30
2018-04-23T15:46:24.240Z,79.10
2018-04-23T15:47:24.245Z,76.17
2018-04-23T15:50:56.519Z,81.79
2018-04-23T15:51:56.515Z,79.59
2018-04-23T15:52:56.519Z,76.42
2018-04-23T15:58:59.583Z,54.44
2018-04-23T16:00:20.583Z,79.35
2018-04-23T16:03:31.365Z,80.08
2018-04-23T16:04:31.370Z,80.32
2018-04-23T16:05:34.292Z,74.71
2018-04-23T16:06:31.857Z,77.39
2018-04-23T16:07:31.237Z,79.59
2018-04-23T16:08:31.860Z,81.54
2018-04-23T16:09:32.361Z,81.05
2018-04-23T16:14:35.682Z,82.28
2018-04-23T16:15:35.682Z,76.42
2018-04-23T16:16:57.187Z,72.02
2018-04-23T16:17:39.615Z,80.08
2018-04-23T16:18:57.185Z,80.81
2018-04-23T16:19:36.183Z,81.05
2018-04-23T16:20:42.681Z,65.19
2018-04-23T16:21:35.910Z,81.05
2018-04-23T16:22:36.682Z,79.83
2018-04-23T16:23:36.690Z,80.08
2018-04-23T16:29:03.873Z,81.30
2018-04-23T16:29:40.404Z,76.66
2018-04-23T16:30:42.902Z,80.08
2018-04-23T16:31:42.901Z,84.47
2018-04-23T16:35:12.413Z,78.13
2018-04-23T16:36:11.898Z,84.96
2018-04-23T16:37:33.926Z,77.64
2018-04-23T16:38:12.915Z,46.88
2018-04-23T16:39:13.912Z,83.50
2018-04-23T16:42:45.086Z,76.42
2018-04-23T16:43:44.441Z,77.88
2018-04-23T16:45:45.586Z,59.33
2018-04-23T16:46:45.589Z,61.52
2018-04-23T16:47:45.588Z,75.68
2018-04-23T16:48:45.582Z,76.42
2018-04-23T16:49:46.090Z,67.14
2018-04-23T16:50:46.086Z,77.15
2018-04-23T16:51:46.086Z,83.74
2018-04-23T16:52:47.518Z,82.52
2018-04-23T16:53:46.595Z,79.83
2018-04-23T16:54:46.644Z,66.89
2018-04-23T16:59:50.096Z,79.83
2018-04-23T17:00:50.092Z,91.31
2018-04-23T17:01:50.598Z,83.25
2018-04-23T17:06:53.322Z,79.35
2018-04-23T17:07:53.349Z,79.83
2018-04-23T17:08:53.824Z,79.83
2018-04-23T17:09:53.853Z,79.35
2018-04-23T17:10:53.823Z,82.28
2018-04-23T17:11:53.830Z,54.93
2018-04-23T17:13:15.322Z,79.83
2018-04-23T17:13:54.323Z,68.85
2018-04-23T17:14:54.330Z,83.98
2018-04-23T17:15:54.331Z,83.50
2018-04-23T17:17:15.821Z,80.08
2018-04-23T17:17:56.275Z,78.37
2018-04-23T17:19:16.820Z,79.35
2018-04-23T17:19:54.826Z,82.28
2018-04-23T17:20:55.328Z,79.59
2018-04-23T17:22:15.528Z,81.05
2018-04-23T17:22:56.288Z,61.28
2018-04-23T17:24:16.325Z,77.15
2018-04-23T17:24:55.754Z,81.30
2018-04-23T17:26:17.821Z,79.83
2018-04-23T17:26:55.822Z,63.23
2018-04-23T17:27:55.822Z,81.54
2018-04-23T17:28:56.322Z,48.58
2018-04-23T17:29:56.323Z,83.01
2018-04-23T17:30:56.321Z,54.20
2018-04-23T17:31:56.327Z,82.52
2018-04-23T17:37:05.233Z,57.86
2018-04-23T17:38:00.736Z,84.23
2018-04-23T17:39:21.801Z,79.35
2018-04-23T17:44:06.755Z,73.73
2018-04-23T17:45:04.281Z,82.28
2018-04-23T17:46:27.257Z,83.74
2018-04-23T17:47:18.786Z,80.08
2018-04-23T17:50:43.301Z,55.91
2018-04-23T17:51:58.300Z,56.15
2018-04-23T17:52:37.300Z,54.44
2018-04-23T17:56:09.064Z,81.30
2018-04-23T17:57:15.557Z,77.15
2018-04-23T18:00:42.959Z,84.96
2018-04-23T18:01:40.957Z,58.59
2018-04-23T18:02:40.559Z,80.08
2018-04-23T18:03:41.465Z,76.66
2018-04-23T18:04:41.457Z,59.57
2018-04-23T18:05:41.456Z,54.69
2018-04-23T18:06:55.964Z,78.61
2018-04-23T18:07:41.190Z,78.13
2018-04-23T18:12:45.901Z,87.16
2018-04-23T18:13:45.377Z,58.11
2018-04-23T18:17:40.712Z,52.00
2018-04-23T18:22:20.855Z,80.81
2018-04-23T18:23:20.857Z,77.64
2018-04-23T18:24:21.355Z,81.30
2018-04-23T18:25:42.853Z,55.18
2018-04-23T18:26:21.356Z,80.57
2018-04-23T18:27:24.287Z,78.61
2018-04-23T18:30:52.968Z,82.52
2018-04-23T18:31:53.618Z,50.05
2018-04-23T18:32:54.118Z,81.30
2018-04-23T18:34:15.117Z,85.94
2018-04-23T18:34:54.119Z,78.13
2018-04-23T18:35:54.122Z,58.59
2018-04-23T18:37:15.618Z,83.98
2018-04-23T18:37:54.616Z,79.59
2018-04-23T18:38:55.549Z,79.10
2018-04-23T18:39:54.625Z,77.15
2018-04-23T18:41:16.119Z,55.91
2018-04-23T18:41:55.118Z,81.05
2018-04-23T18:42:55.127Z,77.39
2018-04-23T18:43:55.117Z,52.73
2018-04-23T18:47:26.813Z,81.79
2018-04-23T18:48:26.881Z,62.26
2018-04-23T18:53:30.097Z,76.42
2018-04-23T18:54:29.580Z,45.90
2018-04-23T18:55:44.606Z,80.32
2018-04-23T19:00:33.459Z,55.42
2018-04-23T19:01:35.465Z,44.43
2018-04-23T19:05:05.245Z,75.20
2018-04-23T19:06:05.214Z,78.13
2018-04-23T19:07:05.712Z,46.88
2018-04-23T19:08:26.710Z,76.90
2018-04-23T19:09:05.078Z,78.86
2018-04-23T19:10:05.715Z,52.49
2018-04-23T19:11:27.211Z,48.58
2018-04-23T19:14:38.142Z,51.27
2018-04-23T19:15:39.528Z,44.92
2018-04-23T19:16:38.097Z,89.36